Time;durP1;ratioP1;P1;durP2;ratioP2;P2;SDS_P1;SDS_P2;PMS_P1;PMS_P2;Temp;Humidity;BMP_temperature;BMP_pressure;BME280_temperature;BME280_humidity;BME280_pressure;Samples;Min_cycle;Max_cycle;Signal;HPM_P1;HPM_P2
2022/12/14 00:02:26;;;;;;;21.23;12.43;;;-4.60;99.90;;;;;;5054911;28;20263;-71
2022/12/14 00:04:54;;;;;;;19.30;11.97;;;-4.60;99.90;;;;;;5054648;28;20202;-71
2022/12/14 00:07:20;;;;;;;21.27;11.73;;;-4.60;99.90;;;;;;5054846;28;20222;-71
2022/12/14 00:09:47;;;;;;;21.53;13.60;;;-4.60;99.90;;;;;;5054361;28;20233;-71
2022/12/14 00:12:13;;;;;;;18.93;12.03;;;-4.60;99.90;;;;;;5054740;28;20274;-71
2022/12/14 00:14:40;;;;;;;19.47;12.20;;;-4.60;99.90;;;;;;5054422;28;20244;-71
2022/12/14 00:17:07;;;;;;;20.80;12.67;;;-4.50;99.90;;;;;;5054304;28;20194;-71
2022/12/14 00:19:34;;;;;;;18.30;12.10;;;-4.60;99.90;;;;;;5054330;28;20197;-71
2022/12/14 00:22:01;;;;;;;21.17;12.67;;;-4.50;99.90;;;;;;5054454;28;20198;-71
2022/12/14 00:24:28;;;;;;;18.33;12.53;;;-4.50;99.90;;;;;;5054436;28;20208;-71
2022/12/14 00:26:55;;;;;;;19.13;11.90;;;-4.50;99.90;;;;;;5055046;28;20767;-71
2022/12/14 00:29:21;;;;;;;20.67;12.57;;;-4.50;99.90;;;;;;5054391;28;20343;-72
2022/12/14 00:31:49;;;;;;;20.40;12.67;;;-4.50;99.90;;;;;;5058685;28;20201;-72
2022/12/14 00:34:16;;;;;;;20.20;12.33;;;-4.40;99.90;;;;;;5060692;28;20194;-72
2022/12/14 00:36:43;;;;;;;21.23;11.70;;;-4.40;99.90;;;;;;5061569;28;20607;-72
2022/12/14 00:39:11;;;;;;;23.87;12.43;;;-4.50;99.90;;;;;;5059653;28;20201;-71
2022/12/14 00:41:37;;;;;;;22.73;12.80;;;-4.40;99.90;;;;;;5054797;28;20193;-72
2022/12/14 00:44:04;;;;;;;21.47;12.40;;;-4.40;99.90;;;;;;5054068;28;20274;-71
2022/12/14 00:46:31;;;;;;;22.03;13.23;;;-4.50;99.90;;;;;;5054314;28;20236;-72
2022/12/14 00:48:57;;;;;;;22.97;12.83;;;-4.40;99.90;;;;;;5060355;28;20279;-72
2022/12/14 00:51:24;;;;;;;21.90;13.43;;;-4.40;99.90;;;;;;5061410;28;20193;-72
2022/12/14 00:53:51;;;;;;;22.07;12.80;;;-4.40;99.90;;;;;;5055700;28;20266;-72
2022/12/14 00:56:19;;;;;;;20.17;12.50;;;-4.50;99.90;;;;;;5057129;28;20201;-72
2022/12/14 00:58:50;;;;;;;20.40;12.80;;;-4.50;99.90;;;;;;5059943;28;20205;-72
2022/12/14 01:01:17;;;;;;;18.60;12.30;;;-4.50;99.90;;;;;;5059697;28;20201;-72
2022/12/14 01:03:44;;;;;;;25.63;13.40;;;-4.50;99.90;;;;;;5060055;28;20197;-72
2022/12/14 01:06:14;;;;;;;21.73;13.17;;;-4.50;99.90;;;;;;5060167;28;20217;-72
2022/12/14 01:08:41;;;;;;;22.07;12.67;;;-4.50;99.90;;;;;;5059780;28;20237;-73
2022/12/14 01:11:09;;;;;;;21.83;12.17;;;-4.50;99.90;;;;;;5060429;28;20277;-72
2022/12/14 01:13:38;;;;;;;24.70;14.03;;;-4.50;99.90;;;;;;5060651;28;20201;-72
2022/12/14 01:16:07;;;;;;;23.10;13.77;;;-4.50;99.90;;;;;;5060324;28;20259;-71
2022/12/14 01:18:34;;;;;;;22.03;13.30;;;-4.50;99.90;;;;;;5060417;28;20197;-72
2022/12/14 01:21:12;;;;;;;18.80;12.80;;;-4.40;99.90;;;;;;5059817;28;20198;-72
2022/12/14 01:23:39;;;;;;;18.97;12.70;;;-4.50;99.90;;;;;;5058354;28;20197;-71
2022/12/14 01:26:06;;;;;;;21.00;12.83;;;-4.50;99.90;;;;;;5054239;28;20244;-71
2022/12/14 01:28:34;;;;;;;20.67;12.27;;;-4.50;99.90;;;;;;5054068;28;20283;-71
2022/12/14 01:31:06;;;;;;;21.00;13.10;;;-4.50;99.90;;;;;;5054000;28;20288;-71
2022/12/14 01:33:33;;;;;;;21.03;12.87;;;-4.50;99.90;;;;;;5053041;28;20209;-71
2022/12/14 01:36:04;;;;;;;23.30;13.17;;;-4.50;99.90;;;;;;5053255;28;20255;-71
2022/12/14 01:38:31;;;;;;;22.60;13.07;;;-4.50;99.90;;;;;;5053418;28;20615;-71
2022/12/14 01:40:58;;;;;;;22.30;12.43;;;-4.50;99.90;;;;;;5053296;28;20653;-71
2022/12/14 01:43:24;;;;;;;24.90;12.53;;;-4.50;99.90;;;;;;5056558;28;20198;-71
2022/12/14 01:45:55;;;;;;;19.67;12.63;;;-4.50;99.90;;;;;;5057087;28;20654;-71
2022/12/14 01:48:23;;;;;;;18.47;12.27;;;-4.50;99.90;;;;;;5057060;28;20290;-70
2022/12/14 01:50:50;;;;;;;24.93;12.97;;;-4.50;99.90;;;;;;5057428;28;20198;-71
2022/12/14 01:53:21;;;;;;;20.73;12.10;;;-4.40;99.90;;;;;;5057275;28;20197;-70
2022/12/14 01:55:51;;;;;;;21.67;12.27;;;-4.40;99.90;;;;;;5056673;28;20367;-70
2022/12/14 01:58:20;;;;;;;19.40;12.73;;;-4.40;99.90;;;;;;5057079;28;20202;-71
2022/12/14 02:00:48;;;;;;;18.57;12.50;;;-4.40;99.90;;;;;;5056885;28;20198;-71
2022/12/14 02:03:18;;;;;;;23.47;12.73;;;-4.40;99.90;;;;;;5056983;28;20237;-71
2022/12/14 02:05:51;;;;;;;20.27;12.93;;;-4.40;99.90;;;;;;5056763;28;20202;-71
2022/12/14 02:08:19;;;;;;;22.67;13.13;;;-4.30;99.90;;;;;;5056652;28;20635;-71
2022/12/14 02:10:48;;;;;;;17.87;12.27;;;-4.40;99.90;;;;;;5056497;28;20271;-71
2022/12/14 02:13:19;;;;;;;23.20;13.07;;;-4.40;99.90;;;;;;5056387;28;20202;-71
2022/12/14 02:15:46;;;;;;;21.73;12.83;;;-4.40;99.90;;;;;;5056644;28;20740;-71
2022/12/14 02:18:19;;;;;;;18.87;11.30;;;-4.30;99.90;;;;;;5056607;28;20201;-71
2022/12/14 02:21:00;;;;;;;18.33;12.27;;;-4.30;99.90;;;;;;5056437;28;20233;-71
2022/12/14 02:23:43;;;;;;;20.50;12.03;;;-4.30;99.90;;;;;;5056400;28;20202;-71
2022/12/14 02:26:47;;;;;;;19.80;12.03;;;-4.30;99.90;;;;;;5056583;28;20206;-71
2022/12/14 02:29:35;;;;;;;20.87;12.67;;;-4.30;99.90;;;;;;5056086;28;20275;-71
2022/12/14 02:32:15;;;;;;;23.23;12.50;;;-4.30;99.90;;;;;;5056202;28;20649;-71
2022/12/14 02:34:53;;;;;;;18.77;12.20;;;-4.30;99.90;;;;;;5056217;28;20652;-71
2022/12/14 02:37:29;;;;;;;18.60;12.30;;;-4.20;99.90;;;;;;5056291;28;20256;-71
2022/12/14 02:40:02;;;;;;;19.03;12.37;;;-4.30;99.90;;;;;;5055965;28;20607;-71
2022/12/14 02:42:39;;;;;;;18.67;11.70;;;-4.30;99.90;;;;;;5056020;28;20296;-71
2022/12/14 02:45:12;;;;;;;18.93;12.10;;;-4.20;99.90;;;;;;5056156;28;20247;-71
2022/12/14 02:47:44;;;;;;;19.83;12.20;;;-4.30;99.90;;;;;;5056051;28;20270;-71
2022/12/14 02:50:16;;;;;;;16.80;11.70;;;-4.30;99.90;;;;;;5055647;28;20202;-71
2022/12/14 02:52:51;;;;;;;20.67;11.17;;;-4.20;99.90;;;;;;5055626;28;20204;-71
2022/12/14 02:55:24;;;;;;;20.50;12.23;;;-4.20;99.90;;;;;;5055430;28;20560;-71
2022/12/14 02:57:53;;;;;;;19.90;11.97;;;-4.20;99.90;;;;;;5055919;28;20255;-71
2022/12/14 03:00:22;;;;;;;16.47;10.77;;;-4.20;99.90;;;;;;5055756;28;20225;-71
2022/12/14 03:02:49;;;;;;;18.10;11.50;;;-4.20;99.90;;;;;;5055553;28;20251;-71
2022/12/14 03:05:16;;;;;;;18.67;10.70;;;-4.20;99.90;;;;;;5055190;28;20208;-71
2022/12/14 03:07:47;;;;;;;19.07;12.07;;;-4.20;99.90;;;;;;5055686;28;20288;-71
2022/12/14 03:10:24;;;;;;;20.67;12.47;;;-4.20;99.90;;;;;;5056707;28;20230;-71
2022/12/14 03:12:56;;;;;;;16.97;10.97;;;-4.20;99.90;;;;;;5056352;28;20201;-71
2022/12/14 03:15:26;;;;;;;16.73;10.77;;;-4.20;99.90;;;;;;5056527;28;20204;-71
2022/12/14 03:17:57;;;;;;;18.50;11.57;;;-4.20;99.90;;;;;;5056522;28;20662;-71
2022/12/14 03:20:26;;;;;;;16.97;10.77;;;-4.20;99.90;;;;;;5056756;28;20197;-71
2022/12/14 03:22:57;;;;;;;16.73;11.07;;;-4.20;99.90;;;;;;5057500;28;20670;-71
2022/12/14 03:25:29;;;;;;;19.77;10.93;;;-4.20;99.90;;;;;;5057169;28;20201;-72
2022/12/14 03:28:01;;;;;;;16.20;10.10;;;-4.20;99.90;;;;;;5055150;28;20287;-71
2022/12/14 03:30:30;;;;;;;18.20;10.50;;;-4.20;99.90;;;;;;5055879;28;20202;-72
2022/12/14 03:33:04;;;;;;;18.87;11.17;;;-4.10;99.90;;;;;;5055748;28;20205;-72
2022/12/14 03:35:33;;;;;;;15.17;10.53;;;-4.10;99.90;;;;;;5055221;28;20251;-71
2022/12/14 03:38:07;;;;;;;15.80;10.00;;;-4.10;99.90;;;;;;5056363;28;20197;-71
2022/12/14 03:40:39;;;;;;;18.33;11.63;;;-4.10;99.90;;;;;;5055220;28;20197;-71
2022/12/14 03:43:15;;;;;;;17.77;10.53;;;-4.10;99.90;;;;;;5055007;28;20251;-71
2022/12/14 03:45:55;;;;;;;16.47;10.10;;;-4.10;99.90;;;;;;5055029;28;20197;-71
2022/12/14 03:48:31;;;;;;;16.70;11.10;;;-4.10;99.90;;;;;;5055113;28;20222;-71
2022/12/14 03:51:09;;;;;;;16.87;10.20;;;-4.10;99.90;;;;;;5055006;28;20199;-71
2022/12/14 03:53:45;;;;;;;19.00;9.70;;;-4.10;99.90;;;;;;5055153;28;20559;-71
2022/12/14 03:56:18;;;;;;;21.27;11.17;;;-4.10;99.90;;;;;;5055081;28;20247;-71
2022/12/14 03:58:52;;;;;;;15.07;10.30;;;-4.00;99.90;;;;;;5054456;28;20194;-71
2022/12/14 04:01:27;;;;;;;15.17;10.20;;;-4.00;99.90;;;;;;5054505;28;20209;-71
2022/12/14 04:03:58;;;;;;;17.40;11.07;;;-4.00;99.90;;;;;;5054505;28;20209;-71
2022/12/14 04:06:32;;;;;;;17.57;11.00;;;-4.00;99.90;;;;;;5054454;28;20205;-71
2022/12/14 04:09:07;;;;;;;15.77;10.17;;;-3.90;99.90;;;;;;5054543;28;20290;-71
2022/12/14 04:20:08;;;;;;;16.40;9.80;;;-3.80;99.90;;;;;;5054818;28;20244;-71
2022/12/14 04:22:40;;;;;;;17.60;9.73;;;-3.80;99.90;;;;;;5054599;28;20202;-71
2022/12/14 04:27:59;;;;;;;17.27;10.10;;;-3.90;99.90;;;;;;5054002;28;20200;-71
2022/12/14 04:30:28;;;;;;;15.87;10.17;;;-3.80;99.90;;;;;;5054212;28;20198;-71
2022/12/14 04:33:45;;;;;;;16.50;9.77;;;-3.80;99.90;;;;;;5053816;28;20203;-71
2022/12/14 04:35:48;;;;;;;15.63;9.70;;;-3.80;99.90;;;;;;5054147;28;20198;-71
2022/12/14 04:38:18;;;;;;;15.23;9.87;;;-3.80;99.90;;;;;;5054234;28;20205;-72
2022/12/14 04:40:49;;;;;;;14.07;8.87;;;-3.80;99.90;;;;;;5054343;28;20206;-72
2022/12/14 04:43:19;;;;;;;15.73;9.90;;;-3.80;99.90;;;;;;5054062;28;20272;-71
2022/12/14 04:45:50;;;;;;;15.53;9.57;;;-3.80;99.90;;;;;;5054067;28;20199;-71
2022/12/14 04:48:23;;;;;;;15.57;9.30;;;-3.70;99.90;;;;;;5054092;28;20221;-72
2022/12/14 04:50:56;;;;;;;15.20;9.80;;;-3.70;99.90;;;;;;5054214;28;20198;-71
2022/12/14 04:53:26;;;;;;;14.57;9.57;;;-3.70;99.90;;;;;;5054128;28;20206;-71
2022/12/14 04:56:00;;;;;;;12.67;8.90;;;-3.70;99.90;;;;;;5054218;28;20247;-72
2022/12/14 04:58:29;;;;;;;13.83;9.23;;;-3.70;99.90;;;;;;5053891;28;20203;-72
2022/12/14 05:01:10;;;;;;;15.77;10.00;;;-3.70;99.90;;;;;;5053811;28;20206;-72
2022/12/14 05:03:48;;;;;;;15.47;9.77;;;-3.70;99.90;;;;;;5054139;28;20538;-72
2022/12/14 05:06:23;;;;;;;14.03;9.50;;;-3.60;99.90;;;;;;5058919;28;20607;-72
2022/12/14 05:09:09;;;;;;;14.40;9.70;;;-3.60;99.90;;;;;;5058618;28;20248;-73
2022/12/14 05:11:41;;;;;;;13.80;9.30;;;-3.60;99.90;;;;;;5060030;28;20226;-72
2022/12/14 05:14:12;;;;;;;16.53;10.70;;;-3.60;99.90;;;;;;5058262;28;20198;-72
2022/12/14 05:16:39;;;;;;;14.30;9.50;;;-3.50;99.90;;;;;;5060365;28;20210;-73
2022/12/14 05:19:09;;;;;;;15.43;9.87;;;-3.60;99.90;;;;;;5065351;28;20204;-73
2022/12/14 05:21:48;;;;;;;15.37;10.10;;;-3.60;99.90;;;;;;5064587;28;20208;-72
2022/12/14 05:24:16;;;;;;;13.27;9.07;;;-3.60;99.90;;;;;;5058090;28;20260;-72
2022/12/14 05:26:43;;;;;;;14.37;8.87;;;-3.50;99.90;;;;;;5058020;28;20200;-72
2022/12/14 05:29:10;;;;;;;23.60;10.00;;;-3.50;99.90;;;;;;5057361;28;20231;-72
2022/12/14 05:31:37;;;;;;;13.77;8.40;;;-3.50;99.90;;;;;;5058157;28;20206;-72
2022/12/14 05:34:04;;;;;;;16.60;9.13;;;-3.50;99.90;;;;;;5057724;28;20659;-71
2022/12/14 05:36:31;;;;;;;14.10;9.10;;;-3.50;99.90;;;;;;5057997;28;20208;-72
2022/12/14 05:38:58;;;;;;;15.07;9.30;;;-3.50;99.90;;;;;;5058402;28;20203;-72
2022/12/14 05:41:25;;;;;;;15.83;9.37;;;-3.50;99.90;;;;;;5057982;28;20205;-72
2022/12/14 05:43:51;;;;;;;16.57;9.90;;;-3.50;99.90;;;;;;5057971;28;20198;-71
2022/12/14 05:46:18;;;;;;;14.33;8.63;;;-3.40;99.90;;;;;;5061594;28;20263;-72
2022/12/14 05:48:45;;;;;;;13.60;8.90;;;-3.40;99.90;;;;;;5062871;28;20222;-72
2022/12/14 05:51:13;;;;;;;16.30;9.37;;;-3.40;99.90;;;;;;5065029;28;20199;-72
2022/12/14 05:53:41;;;;;;;13.90;9.03;;;-3.40;99.90;;;;;;5060690;28;20203;-72
2022/12/14 05:56:09;;;;;;;18.13;9.80;;;-3.40;99.90;;;;;;5058083;28;20221;-72
2022/12/14 05:58:36;;;;;;;14.57;9.20;;;-3.40;99.90;;;;;;5058042;28;20206;-71
2022/12/14 06:01:05;;;;;;;13.67;9.27;;;-3.40;99.90;;;;;;5057369;28;20194;-71
2022/12/14 06:03:32;;;;;;;18.10;9.10;;;-3.40;99.90;;;;;;5057321;28;20198;-71
2022/12/14 06:06:01;;;;;;;17.00;9.40;;;-3.40;99.90;;;;;;5057507;28;20248;-71
2022/12/14 06:08:31;;;;;;;13.37;9.80;;;-3.40;99.90;;;;;;5057562;28;20288;-71
2022/12/14 06:11:03;;;;;;;13.87;9.20;;;-3.40;99.90;;;;;;5057894;28;20261;-72
2022/12/14 06:13:30;;;;;;;14.00;9.00;;;-3.40;99.90;;;;;;5058118;28;20258;-71
2022/12/14 06:16:08;;;;;;;21.30;9.70;;;-3.40;99.90;;;;;;5057631;28;20207;-70
2022/12/14 06:18:35;;;;;;;13.90;9.20;;;-3.40;99.90;;;;;;5058121;28;20720;-70
2022/12/14 06:21:02;;;;;;;13.67;8.80;;;-3.40;99.90;;;;;;5058015;28;20199;-71
2022/12/14 06:23:28;;;;;;;13.50;8.53;;;-3.40;99.90;;;;;;5058419;28;20199;-71
2022/12/14 06:25:55;;;;;;;13.53;9.27;;;-3.30;99.90;;;;;;5058625;28;20656;-72
2022/12/14 06:28:23;;;;;;;16.00;9.60;;;-3.30;99.90;;;;;;5059107;28;20195;-71
2022/12/14 06:30:50;;;;;;;20.70;9.87;;;-3.40;99.90;;;;;;5059683;28;20202;-72
2022/12/14 06:33:17;;;;;;;16.67;9.60;;;-3.30;99.90;;;;;;5059914;28;20553;-71
2022/12/14 06:35:44;;;;;;;16.17;9.53;;;-3.30;99.90;;;;;;5060460;28;20679;-72
2022/12/14 06:38:11;;;;;;;16.13;9.80;;;-3.30;99.90;;;;;;5060102;28;20256;-71
2022/12/14 06:40:37;;;;;;;14.67;9.40;;;-3.30;99.90;;;;;;5060197;28;20249;-71
2022/12/14 06:43:04;;;;;;;12.50;9.00;;;-3.30;99.90;;;;;;5057874;28;20536;-71
2022/12/14 06:45:32;;;;;;;19.87;9.57;;;-3.30;99.90;;;;;;5057954;28;20199;-71
2022/12/14 06:47:59;;;;;;;15.67;8.90;;;-3.30;99.90;;;;;;5057832;28;20203;-71
2022/12/14 06:50:27;;;;;;;16.07;9.73;;;-3.30;99.90;;;;;;5058062;28;20235;-71
2022/12/14 06:52:54;;;;;;;14.03;9.37;;;-3.30;99.90;;;;;;5058133;28;20231;-71
2022/12/14 06:55:22;;;;;;;15.53;8.93;;;-3.30;99.90;;;;;;5057918;28;20311;-71
2022/12/14 06:57:50;;;;;;;15.50;9.80;;;-3.30;99.90;;;;;;5058526;28;20607;-72
2022/12/14 07:00:17;;;;;;;13.23;9.57;;;-3.30;99.90;;;;;;5060239;28;20285;-71
2022/12/14 07:02:45;;;;;;;13.73;9.30;;;-3.30;99.90;;;;;;5060210;28;20233;-71
2022/12/14 07:05:12;;;;;;;14.57;9.27;;;-3.30;99.90;;;;;;5060553;28;20254;-71
2022/12/14 07:07:39;;;;;;;13.93;8.97;;;-3.30;99.90;;;;;;5060782;28;20204;-71
2022/12/14 07:10:08;;;;;;;14.23;8.87;;;-3.30;99.90;;;;;;5060451;28;20243;-71
2022/12/14 07:12:35;;;;;;;12.97;8.50;;;-3.30;99.90;;;;;;5060217;28;20199;-71
2022/12/14 07:15:01;;;;;;;15.00;9.67;;;-3.30;99.90;;;;;;5060086;28;20199;-71
2022/12/14 07:17:28;;;;;;;14.83;9.57;;;-3.30;99.90;;;;;;5060741;28;20202;-71
2022/12/14 07:19:56;;;;;;;12.77;8.93;;;-3.30;99.90;;;;;;5071753;28;20199;-71
2022/12/14 07:22:23;;;;;;;13.20;9.00;;;-3.30;99.90;;;;;;5080488;28;20224;-72
2022/12/14 07:24:49;;;;;;;12.07;8.83;;;-3.30;99.90;;;;;;5079747;28;20199;-72
2022/12/14 07:27:18;;;;;;;16.80;9.70;;;-3.30;99.90;;;;;;5079430;28;20203;-72
2022/12/14 07:29:44;;;;;;;15.63;9.20;;;-3.20;99.90;;;;;;5079320;28;20305;-72
2022/12/14 07:32:11;;;;;;;15.37;8.50;;;-3.20;99.90;;;;;;5079872;28;20685;-72
2022/12/14 07:34:39;;;;;;;15.97;9.80;;;-3.20;99.90;;;;;;5080400;28;20204;-72
2022/12/14 07:37:07;;;;;;;20.17;10.43;;;-3.10;99.90;;;;;;5080457;28;20211;-72
2022/12/14 07:39:34;;;;;;;16.20;9.27;;;-3.10;99.90;;;;;;5079368;28;20211;-72
2022/12/14 07:42:00;;;;;;;17.27;10.40;;;-3.10;99.90;;;;;;5080498;28;20264;-73
2022/12/14 07:44:27;;;;;;;15.40;9.47;;;-3.10;99.90;;;;;;5080539;28;20196;-73
2022/12/14 07:46:54;;;;;;;17.37;9.93;;;-3.10;99.90;;;;;;5080953;28;20202;-73
2022/12/14 07:49:20;;;;;;;17.07;10.83;;;-3.10;99.90;;;;;;5081037;28;20228;-72
2022/12/14 07:51:47;;;;;;;15.90;10.77;;;-3.00;99.90;;;;;;5080348;28;20210;-72
2022/12/14 07:54:15;;;;;;;17.70;10.87;;;-3.00;99.90;;;;;;5079987;28;20200;-73
2022/12/14 07:56:43;;;;;;;15.83;9.70;;;-2.90;99.90;;;;;;5079876;28;20228;-73
2022/12/14 07:59:13;;;;;;;16.27;11.00;;;-2.90;99.90;;;;;;5080619;28;20207;-73
2022/12/14 08:01:41;;;;;;;14.00;9.50;;;-2.90;99.90;;;;;;5079871;28;20294;-73
2022/12/14 08:04:09;;;;;;;16.70;9.93;;;-2.90;99.90;;;;;;5079484;28;20697;-72
2022/12/14 08:06:37;;;;;;;17.93;10.23;;;-2.80;99.90;;;;;;5080687;28;20529;-72
2022/12/14 08:09:03;;;;;;;15.00;10.33;;;-2.80;99.90;;;;;;5079076;28;20234;-73
2022/12/14 08:11:31;;;;;;;16.67;10.37;;;-2.80;99.90;;;;;;5080449;28;20199;-72
2022/12/14 08:14:00;;;;;;;14.63;9.67;;;-2.80;99.90;;;;;;5079150;28;20222;-73
2022/12/14 08:16:27;;;;;;;14.63;9.97;;;-2.90;99.90;;;;;;5079978;28;20652;-72
2022/12/14 08:18:55;;;;;;;21.07;9.97;;;-2.90;99.90;;;;;;5079717;28;20199;-72
2022/12/14 08:21:23;;;;;;;15.83;10.30;;;-2.90;99.90;;;;;;5078112;28;20259;-72
2022/12/14 08:23:51;;;;;;;17.03;9.87;;;-2.90;99.90;;;;;;5079622;28;20206;-73
2022/12/14 08:26:18;;;;;;;16.93;9.90;;;-2.80;99.90;;;;;;5078720;28;20199;-73
2022/12/14 08:28:47;;;;;;;19.20;10.77;;;-2.70;99.90;;;;;;5080167;28;20702;-73
2022/12/14 08:31:16;;;;;;;15.70;9.83;;;-2.80;99.90;;;;;;5078959;28;20251;-73
2022/12/14 08:33:44;;;;;;;15.23;10.23;;;-2.70;99.90;;;;;;5079264;28;20203;-73
2022/12/14 08:36:12;;;;;;;16.97;10.80;;;-2.70;99.90;;;;;;5074209;28;20209;-73
2022/12/14 08:38:40;;;;;;;17.57;11.17;;;-2.70;99.90;;;;;;5073026;28;20198;-74
2022/12/14 08:41:08;;;;;;;19.03;11.27;;;-2.70;99.90;;;;;;5073292;28;20210;-73
2022/12/14 08:43:35;;;;;;;19.50;11.30;;;-2.80;99.90;;;;;;5074340;28;20325;-73
2022/12/14 08:46:04;;;;;;;16.17;11.00;;;-2.80;99.90;;;;;;5073678;28;20720;-73
2022/12/14 08:48:31;;;;;;;15.23;10.37;;;-2.70;99.90;;;;;;5073854;28;20225;-73
2022/12/14 08:51:01;;;;;;;16.83;10.70;;;-2.60;99.90;;;;;;5073843;28;20229;-73
2022/12/14 08:53:28;;;;;;;14.23;9.80;;;-2.60;99.90;;;;;;5074090;28;20194;-73
2022/12/14 08:55:54;;;;;;;20.00;11.03;;;-2.60;99.90;;;;;;5074198;28;20228;-73
2022/12/14 08:58:21;;;;;;;16.20;10.53;;;-2.60;99.90;;;;;;5078629;28;20197;-73
2022/12/14 09:00:48;;;;;;;18.00;11.30;;;-2.50;99.90;;;;;;5074433;28;20193;-73
2022/12/14 09:03:16;;;;;;;14.80;10.20;;;-2.50;99.90;;;;;;5077859;28;20263;-73
2022/12/14 09:05:43;;;;;;;18.23;10.87;;;-2.50;99.90;;;;;;5080715;28;20629;-73
2022/12/14 09:08:09;;;;;;;20.40;10.60;;;-2.40;99.90;;;;;;5079963;28;20257;-74
2022/12/14 09:10:36;;;;;;;16.20;10.67;;;-2.40;99.90;;;;;;5081779;28;20277;-73
2022/12/14 09:13:03;;;;;;;16.30;11.20;;;-2.40;99.90;;;;;;5081837;28;20193;-72
2022/12/14 09:15:29;;;;;;;18.93;11.17;;;-2.40;99.90;;;;;;5076712;28;20198;-72
2022/12/14 09:17:56;;;;;;;16.37;10.30;;;-2.50;99.90;;;;;;5077670;28;20679;-72
2022/12/14 09:20:24;;;;;;;17.30;11.03;;;-2.50;99.90;;;;;;5076685;28;20201;-72
2022/12/14 09:22:51;;;;;;;16.07;10.87;;;-2.50;99.90;;;;;;5074887;28;20204;-72
2022/12/14 09:25:18;;;;;;;16.27;10.87;;;-2.50;99.90;;;;;;5073472;28;20689;-72
2022/12/14 09:27:45;;;;;;;16.97;11.33;;;-2.60;99.90;;;;;;5075548;28;20608;-72
2022/12/14 09:30:11;;;;;;;17.80;11.43;;;-2.70;99.90;;;;;;5075085;28;20220;-72
2022/12/14 09:32:39;;;;;;;18.30;11.30;;;-2.60;99.90;;;;;;5074381;28;20200;-72
2022/12/14 09:35:06;;;;;;;16.30;11.63;;;-2.70;99.90;;;;;;5073503;28;20224;-72
2022/12/14 09:37:34;;;;;;;14.13;10.83;;;-2.60;99.90;;;;;;5073493;28;20202;-72
2022/12/14 09:40:01;;;;;;;17.73;12.07;;;-2.60;99.90;;;;;;5073169;28;20203;-72
2022/12/14 09:42:43;;;;;;;18.90;13.33;;;-2.60;99.90;;;;;;5073337;28;20197;-72
2022/12/14 09:45:17;;;;;;;23.93;12.93;;;-2.60;99.90;;;;;;5073675;28;20200;-72
2022/12/14 09:47:53;;;;;;;19.90;12.70;;;-2.60;99.90;;;;;;5073511;28;20195;-72
2022/12/14 09:50:22;;;;;;;17.17;12.47;;;-2.60;99.90;;;;;;5073259;28;20230;-73
2022/12/14 09:52:53;;;;;;;19.37;12.13;;;-2.70;99.90;;;;;;5073485;28;20245;-73
2022/12/14 09:55:25;;;;;;;18.80;12.80;;;-2.60;99.90;;;;;;5073671;28;20354;-73
2022/12/14 09:57:56;;;;;;;19.33;12.50;;;-2.60;99.90;;;;;;5073195;28;20198;-77
2022/12/14 10:00:23;;;;;;;18.73;12.27;;;-2.70;99.90;;;;;;5074057;28;20197;-73
2022/12/14 10:03:03;;;;;;;20.83;13.33;;;-2.60;99.90;;;;;;5073409;28;20202;-73
2022/12/14 10:05:48;;;;;;;22.53;13.50;;;-2.70;99.90;;;;;;5075936;28;20207;-72
2022/12/14 10:08:25;;;;;;;18.47;12.87;;;-2.60;99.90;;;;;;5076952;28;20272;-72
2022/12/14 10:11:00;;;;;;;21.50;13.53;;;-2.60;99.90;;;;;;5076644;28;20223;-72
2022/12/14 10:13:39;;;;;;;20.07;13.77;;;-2.40;99.90;;;;;;5076739;28;20727;-72
2022/12/14 10:16:16;;;;;;;22.90;14.60;;;-2.30;99.90;;;;;;5076315;28;20193;-72
2022/12/14 10:19:01;;;;;;;22.87;14.53;;;-2.10;99.90;;;;;;5078218;28;20201;-73
2022/12/14 10:21:39;;;;;;;21.23;14.67;;;-2.10;99.90;;;;;;5078846;28;20254;-73
2022/12/14 10:24:14;;;;;;;21.33;15.10;;;-1.90;99.90;;;;;;5077141;28;20205;-74
2022/12/14 10:26:44;;;;;;;22.43;14.67;;;-1.90;99.90;;;;;;5077034;28;20254;-73
2022/12/14 10:29:15;;;;;;;21.53;15.63;;;-2.00;99.90;;;;;;5077256;28;20258;-74
2022/12/14 10:31:52;;;;;;;20.63;14.17;;;-2.10;99.90;;;;;;5078050;28;20255;-74
2022/12/14 10:34:22;;;;;;;23.17;14.17;;;-2.10;99.90;;;;;;5077099;28;20204;-75
2022/12/14 10:36:54;;;;;;;20.90;13.90;;;-2.10;99.90;;;;;;5078193;28;20197;-74
2022/12/14 10:39:33;;;;;;;23.20;14.43;;;-2.10;99.90;;;;;;5078238;28;20266;-74
2022/12/14 10:42:06;;;;;;;21.93;14.80;;;-2.10;99.90;;;;;;5078260;28;20632;-74
2022/12/14 10:44:42;;;;;;;22.90;15.60;;;-2.10;99.90;;;;;;5077198;28;20239;-73
2022/12/14 10:47:16;;;;;;;20.40;13.87;;;-2.20;99.90;;;;;;5076041;28;20253;-75
2022/12/14 10:49:53;;;;;;;23.50;15.70;;;-2.30;99.90;;;;;;5077572;28;20204;-74
2022/12/14 10:52:22;;;;;;;23.37;15.30;;;-2.40;99.90;;;;;;5079566;28;20364;-75
2022/12/14 10:54:55;;;;;;;23.20;15.63;;;-2.40;99.90;;;;;;5081597;28;20197;-74
2022/12/14 10:57:25;;;;;;;25.73;16.90;;;-2.50;99.90;;;;;;5082646;28;20659;-74
2022/12/14 10:59:52;;;;;;;24.60;17.17;;;-2.40;99.90;;;;;;5083116;28;20204;-74
2022/12/14 11:02:21;;;;;;;23.77;16.10;;;-2.30;99.90;;;;;;5082722;28;20204;-75
2022/12/14 11:04:50;;;;;;;24.67;16.40;;;-2.30;99.90;;;;;;5083061;28;20256;-76
2022/12/14 11:07:19;;;;;;;29.27;18.10;;;-2.20;99.90;;;;;;5085846;28;20223;-74
2022/12/14 11:09:46;;;;;;;26.87;17.70;;;-2.10;99.90;;;;;;5081174;28;20265;-75
2022/12/14 11:12:21;;;;;;;25.27;16.33;;;-2.10;99.90;;;;;;5082930;28;20232;-75
2022/12/14 11:14:56;;;;;;;24.97;16.00;;;-2.10;99.90;;;;;;5078412;28;20193;-75
2022/12/14 11:17:35;;;;;;;21.77;15.27;;;-2.00;99.90;;;;;;5080039;28;20185;-75
2022/12/14 11:20:21;;;;;;;24.37;16.13;;;-1.90;99.90;;;;;;5079242;28;20226;-75
2022/12/14 11:22:50;;;;;;;24.60;16.50;;;-1.90;99.90;;;;;;5077975;28;20298;-75
2022/12/14 11:25:29;;;;;;;26.03;16.23;;;-1.80;99.90;;;;;;5077482;28;20250;-74
2022/12/14 11:28:00;;;;;;;20.80;14.73;;;-1.60;99.90;;;;;;5075716;28;20209;-74
2022/12/14 11:30:28;;;;;;;22.97;15.03;;;-1.50;99.90;;;;;;5075445;28;20278;-75
2022/12/14 11:32:55;;;;;;;23.40;15.30;;;-1.50;99.90;;;;;;5075184;28;20246;-73
2022/12/14 11:35:22;;;;;;;22.03;15.67;;;-1.30;99.90;;;;;;5075407;28;20209;-74
2022/12/14 11:37:50;;;;;;;20.70;14.97;;;-1.20;99.90;;;;;;5075422;28;20254;-74
2022/12/14 11:40:24;;;;;;;21.47;15.47;;;-1.00;99.90;;;;;;5074911;28;20200;-74
2022/12/14 11:42:54;;;;;;;22.17;14.60;;;-1.00;99.90;;;;;;5075075;28;20204;-74
2022/12/14 11:45:33;;;;;;;22.67;15.67;;;-1.10;99.90;;;;;;5074918;28;20209;-74
2022/12/14 11:48:19;;;;;;;22.63;14.50;;;-1.10;99.90;;;;;;5074576;28;20193;-74
2022/12/14 11:50:48;;;;;;;19.63;14.57;;;-1.00;99.90;;;;;;5074335;28;20301;-74
2022/12/14 11:53:17;;;;;;;24.40;15.97;;;-1.10;99.90;;;;;;5074604;28;20255;-74
2022/12/14 11:55:47;;;;;;;20.43;14.77;;;-1.10;99.90;;;;;;5074734;28;20205;-75
2022/12/14 11:58:17;;;;;;;21.17;15.47;;;-1.20;99.90;;;;;;5074614;28;20193;-74
2022/12/14 12:00:49;;;;;;;25.93;16.93;;;-1.40;99.90;;;;;;5074207;28;20258;-75
2022/12/14 12:03:23;;;;;;;25.53;16.43;;;-1.40;99.90;;;;;;5070855;28;20197;-74
2022/12/14 12:05:51;;;;;;;22.53;16.23;;;-1.30;99.90;;;;;;5095092;28;20287;-74
2022/12/14 12:08:21;;;;;;;27.70;17.97;;;-1.30;99.90;;;;;;5094461;28;20196;-74
2022/12/14 12:10:51;;;;;;;26.37;18.20;;;-1.20;99.90;;;;;;5095127;28;20238;-74
2022/12/14 12:13:23;;;;;;;24.67;15.97;;;-1.00;99.90;;;;;;5096239;28;20717;-73
2022/12/14 12:15:55;;;;;;;22.67;16.13;;;-1.00;99.90;;;;;;5095518;28;20258;-75
2022/12/14 12:18:26;;;;;;;22.20;15.97;;;-1.00;99.90;;;;;;5095477;28;20682;-74
2022/12/14 12:20:56;;;;;;;24.47;15.77;;;-0.90;99.90;;;;;;5095060;28;20211;-74
2022/12/14 12:23:29;;;;;;;23.47;15.20;;;-0.90;99.90;;;;;;5095095;28;20200;-74
2022/12/14 12:25:58;;;;;;;29.10;16.63;;;-0.90;99.90;;;;;;5095183;28;20198;-73
2022/12/14 12:28:29;;;;;;;23.80;16.57;;;-1.00;99.90;;;;;;5095828;28;20196;-75
2022/12/14 12:31:07;;;;;;;23.43;16.13;;;-1.00;99.90;;;;;;5095360;28;20695;-75
2022/12/14 12:33:43;;;;;;;26.50;15.90;;;-1.10;99.90;;;;;;5082420;28;20246;-75
2022/12/14 12:36:10;;;;;;;26.57;16.47;;;-1.20;99.90;;;;;;5074883;28;20246;-74
2022/12/14 12:38:56;;;;;;;22.73;15.60;;;-1.20;99.90;;;;;;5075338;28;20204;-76
2022/12/14 12:41:32;;;;;;;21.77;16.07;;;-1.10;99.90;;;;;;5074662;28;20709;-75
2022/12/14 12:44:06;;;;;;;25.23;16.80;;;-1.20;99.90;;;;;;5074823;28;20192;-75
2022/12/14 12:46:44;;;;;;;31.87;17.97;;;-1.30;99.90;;;;;;5075455;28;20258;-75
2022/12/14 12:49:13;;;;;;;23.20;16.80;;;-1.30;99.90;;;;;;5076173;28;20196;-74
2022/12/14 12:51:45;;;;;;;25.17;17.50;;;-1.30;99.90;;;;;;5083522;28;20292;-74
2022/12/14 12:54:18;;;;;;;31.03;17.13;;;-1.30;99.90;;;;;;5086671;28;20243;-74
2022/12/14 12:56:49;;;;;;;33.07;18.47;;;-1.30;99.90;;;;;;5084434;28;20259;-75
2022/12/14 12:59:19;;;;;;;26.00;17.00;;;-1.20;99.90;;;;;;5084449;28;20222;-74